Latest Weather Observations for Redcliffe

IDQ60801

Issued at 4:33 pm EST Wednesday 28 February 2024 (issued every 10 minutes, with the page automatically refreshed every 10 minutes)

About weather observations | Map of weather stations | Latest weather observations for QLD | Other Formats
Station Details ID: 040958 Name: REDCLIFFE Lat: -27.22 Lon: 153.09 Height: 12.6 m
Data from the previous 72 hours. | See also: Recent months at Redcliffe
Date/Time
EST
Temp
°C
App
Temp
°C
Dew
Point
°C
Rel
Hum
%
Delta-T
°C
Wind Press
QNH
hPa
Press
MSL
hPa
Rain since
9am
mm
Dir  Spd
km/h
Gust
km/h
Spd
kts
Gust
kts
28/04:30pm 27.8 27.2 20.6 65 4.7 ESE 24 30 13 16 1017.5 1017.4 0.0
28/04:00pm 28.5 28.1 21.0 64 5.0 ESE 24 28 13 15 1017.5 1017.4 0.0
28/03:30pm 28.5 27.7 20.8 63 5.1 ESE 26 30 14 16 1017.5 1017.4 0.0
28/03:00pm 28.6 27.5 20.3 60 5.5 E 26 30 14 16 1017.5 1017.4 0.0
28/02:30pm 28.8 27.6 20.8 62 5.3 ESE 28 32 15 17 1017.7 1017.6 0.0
28/02:00pm 28.9 27.7 20.1 59 5.8 ESE 26 30 14 16 1017.8 1017.7 0.0
28/01:30pm 29.0 28.3 20.2 59 5.8 ESE 24 30 13 16 1018.1 1018.0 0.0
28/01:00pm 29.6 30.0 21.0 60 5.7 ESE 20 26 11 14 1018.4 1018.3 0.0
28/12:30pm 29.3 29.7 20.7 59 5.7 ESE 19 22 10 12 1018.6 1018.5 0.0
28/12:00pm 29.2 31.5 21.4 63 5.2 SE 11 13 6 7 1018.8 1018.7 0.0
28/11:30am 30.1 32.3 21.2 59 6.0 SSE 11 15 6 8 1019.0 1018.9 0.0
28/11:00am 29.8 30.9 21.2 60 5.7 SSE 17 20 9 11 1019.0 1018.9 0.0
28/10:30am 29.3 30.4 21.3 62 5.3 SSE 17 20 9 11 1019.2 1019.1 0.0
28/10:00am 29.1 30.2 20.5 59 5.7 SSE 15 19 8 10 1019.4 1019.3 0.0
28/09:30am 29.1 30.7 20.8 61 5.5 SSE 13 19 7 10 1019.3 1019.2 0.0
28/09:00am 28.7 29.5 20.7 62 5.3 SSE 17 19 9 10 1019.3 1019.2 0.0
28/08:30am 28.4 29.3 20.9 64 5.0 S 17 20 9 11 1019.3 1019.2 0.0
28/08:00am 27.9 28.6 21.2 67 4.4 S 19 22 10 12 1019.2 1019.1 0.0
28/07:30am 26.7 27.8 21.2 72 3.6 S 17 22 9 12 1018.9 1018.8 0.0
28/07:00am 25.3 25.8 21.2 78 2.7 S 20 24 11 13 1018.8 1018.7 0.0
28/06:30am 23.8 24.0 20.5 82 2.1 S 20 24 11 13 1018.5 1018.4 0.0
28/06:00am 23.0 23.5 20.1 84 1.9 SSW 17 20 9 11 1018.2 1018.1 0.0
28/05:30am 23.2 24.2 20.2 83 1.9 S 15 19 8 10 1017.8 1017.7 0.0
28/05:00am 23.3 23.5 20.2 83 2.0 S 19 24 10 13 1017.5 1017.4 0.0
28/04:30am 24.0 24.2 20.1 79 2.5 S 19 24 10 13 1017.2 1017.1 0.0
28/04:00am 25.5 24.6 19.9 71 3.6 SE 24 30 13 16 1016.9 1016.8 0.0
28/03:30am 25.6 24.2 19.7 70 3.8 SE 26 30 14 16 1016.7 1016.6 0.0
28/03:00am 25.9 25.3 19.8 69 3.9 SE 22 26 12 14 1016.8 1016.7 0.0
28/02:30am 25.8 25.2 19.7 69 3.9 SE 22 28 12 15 1016.8 1016.7 0.0
28/02:00am 26.0 24.8 20.1 70 3.8 ESE 26 30 14 16 1017.0 1016.9 0.0
28/01:30am 26.0 24.6 19.6 68 4.1 SE 26 30 14 16 1017.2 1017.1 0.0
28/01:00am 25.9 24.4 19.5 68 4.1 SE 26 30 14 16 1017.4 1017.3 0.0
28/12:30am 25.9 25.3 19.8 69 4.0 SE 22 28 12 15 1017.4 1017.3 0.0
28/12:00am 26.1 25.1 19.7 68 4.1 SE 24 30 13 16 1017.6 1017.5 0.0
 
Date/Time
EST
Temp
°C
App
Temp
°C
Dew
Point
°C
Rel
Hum
%
Delta-T
°C
Wind Press
QNH
hPa
Press
MSL
hPa
Rain since
9am
mm
Dir  Spd
km/h
Gust
km/h
Spd
kts
Gust
kts
27/11:30pm 26.2 24.8 19.6 67 4.3 SE 26 32 14 17 1017.8 1017.7 0.0
27/11:00pm 26.3 24.6 19.9 68 4.2 SE 28 33 15 18 1018.0 1017.9 0.0
27/10:30pm 26.3 25.7 20.4 70 3.9 SE 24 30 13 16 1018.1 1018.0 0.0
27/10:00pm 26.1 25.6 20.7 72 3.5 SE 24 28 13 15 1018.1 1018.0 0.0
27/09:30pm 26.4 25.8 20.5 70 3.9 SE 24 28 13 15 1018.2 1018.1 0.0
27/09:00pm 26.5 25.6 20.6 70 3.9 SE 26 32 14 17 1018.2 1018.1 0.0
27/08:30pm 26.4 25.6 20.0 68 4.2 ESE 24 30 13 16 1018.1 1018.0 0.0
27/08:00pm 26.5 24.8 18.9 63 4.9 SE 26 30 14 16 1017.7 1017.6 0.0
27/07:30pm 26.6 24.7 18.5 61 5.2 SE 26 30 14 16 1017.6 1017.5 0.0
27/07:00pm 26.7 25.5 20.1 67 4.3 SE 26 32 14 17 1017.1 1017.0 0.0
27/06:30pm 26.6 24.9 19.7 66 4.5 SE 28 37 15 20 1016.7 1016.6 0.0
27/06:00pm 26.9 25.5 20.5 68 4.2 SE 28 32 15 17 1016.3 1016.2 0.0
27/05:30pm 27.3 26.2 21.1 69 4.1 SE 28 35 15 19 1016.0 1015.9 0.0
27/05:00pm 27.6 26.8 20.9 67 4.4 ESE 26 32 14 17 1015.7 1015.6 0.0
27/04:30pm 27.8 26.4 21.1 67 4.4 ESE 30 32 16 17 1015.4 1015.3 0.0
27/04:00pm 28.8 28.0 21.6 65 4.8 ESE 28 32 15 17 1015.3 1015.2 0.0
27/03:30pm 28.5 28.2 21.8 67 4.5 ESE 26 30 14 16 1015.2 1015.1 0.0
27/03:00pm 28.5 28.0 21.5 66 4.7 E 26 30 14 16 1015.2 1015.1 0.0
27/02:30pm 28.5 28.7 21.3 65 4.8 ESE 22 28 12 15 1015.1 1015.0 0.0
27/02:00pm 29.3 29.5 21.3 62 5.3 ESE 22 26 12 14 1015.3 1015.2 0.0
27/01:30pm 29.4 29.9 21.1 61 5.5 ESE 20 26 11 14 1015.5 1015.4 0.0
27/01:00pm 29.3 29.7 21.0 61 5.5 ESE 20 26 11 14 1015.6 1015.5 0.0
27/12:30pm 29.0 29.4 20.7 61 5.5 E 19 20 10 11 1015.8 1015.7 0.0
27/12:00pm 29.3 30.4 20.5 59 5.8 ESE 15 19 8 10 1015.9 1015.8 0.0
27/11:30am 29.1 30.5 21.1 62 5.3 ESE 15 20 8 11 1016.1 1016.0 0.0
27/11:00am 29.6 30.7 21.3 61 5.5 ESE 17 19 9 10 1016.2 1016.1 0.0
27/10:30am 30.1 32.1 22.3 63 5.3 ESE 15 17 8 9 1016.4 1016.3 0.0
27/10:00am 28.7 30.0 21.7 66 4.7 SE 17 20 9 11 1016.5 1016.4 0.0
27/09:30am 29.0 30.8 22.5 68 4.4 SE 17 19 9 10 1016.6 1016.5 0.0
27/09:00am 28.6 30.2 22.1 68 4.4 SSE 17 19 9 10 1016.4 1016.3 0.0
27/08:30am 27.7 29.5 22.6 74 3.5 SSE 17 20 9 11 1016.3 1016.2 0.0
27/08:00am 26.3 28.2 22.8 81 2.4 SSE 17 22 9 12 1016.1 1016.0 0.0
27/07:30am 26.5 28.0 23.0 81 2.4 S 20 24 11 13 1015.6 1015.5 0.0
27/07:00am 26.0 27.8 23.5 86 1.7 SSE 20 24 11 13 1015.4 1015.3 0.0
27/06:30am 25.6 27.5 23.5 88 1.4 S 19 22 10 12 1015.0 1014.9 0.0
27/06:00am 25.7 27.4 23.4 87 1.6 S 20 24 11 13 1014.6 1014.5 0.0
27/05:30am 26.0 27.5 22.7 82 2.2 SSE 19 20 10 11 1014.2 1014.1 0.0
27/05:00am 25.3 27.6 23.4 89 1.3 SE 17 20 9 11 1014.1 1014.0 0.0
27/04:30am 25.1 28.0 23.2 89 1.3 SE 13 20 7 11 1013.8 1013.7 0.0
27/04:00am 25.4 27.9 23.1 87 1.6 SE 15 17 8 9 1013.6 1013.5 0.0
27/03:30am 25.7 29.1 23.4 87 1.6 SE 11 13 6 7 1013.6 1013.5 0.0
27/03:00am 25.8 29.2 23.3 86 1.7 SSE 11 13 6 7 1013.7 1013.6 0.0
27/02:30am 26.3 29.5 23.0 82 2.2 SE 11 15 6 8 1014.0 1013.9 0.0
27/02:00am 26.3 29.0 22.8 81 2.4 SE 13 15 7 8 1014.1 1014.0 0.0
27/01:30am 26.0 29.3 22.5 81 2.4 SE 9 11 5 6 1014.3 1014.2 0.0
27/01:00am 25.9 28.9 22.6 82 2.2 SE 11 13 6 7 1014.5 1014.4 0.0
27/12:30am 26.3 29.6 22.6 80 2.5 ESE 9 11 5 6 1014.5 1014.4 0.0
27/12:00am 26.4 29.7 22.5 79 2.6 ESE 9 11 5 6 1014.6 1014.5 0.0
 
Date/Time
EST
Temp
°C
App
Temp
°C
Dew
Point
°C
Rel
Hum
%
Delta-T
°C
Wind Press
QNH
hPa
Press
MSL
hPa
Rain since
9am
mm
Dir  Spd
km/h
Gust
km/h
Spd
kts
Gust
kts
26/11:30pm 26.3 29.6 22.6 80 2.5 ESE 9 11 5 6 1014.5 1014.4 0.0
26/11:00pm 26.1 29.1 22.6 81 2.4 E 11 15 6 8 1014.5 1014.4 0.0
26/10:30pm 26.4 29.7 22.5 79 2.6 ENE 9 11 5 6 1014.4 1014.3 0.0
26/10:00pm 26.5 29.5 22.6 79 2.6 ENE 11 15 6 8 1014.7 1014.6 0.0
26/09:30pm 26.6 28.9 22.7 79 2.6 ENE 15 17 8 9 1014.6 1014.5 0.0
26/09:00pm 26.8 29.0 22.6 78 2.8 ENE 15 19 8 10 1014.6 1014.5 0.0
26/08:30pm 26.8 28.7 22.8 79 2.7 E 17 20 9 11 1014.3 1014.2 0.0
26/08:00pm 26.9 29.3 22.9 79 2.7 ENE 15 19 8 10 1014.0 1013.9 0.0
26/07:30pm 26.8 28.6 22.6 78 2.8 ENE 17 19 9 10 1013.7 1013.6 0.0
26/07:00pm 27.0 28.9 22.8 78 2.8 NE 17 19 9 10 1013.3 1013.2 0.0
26/06:30pm 27.2 29.2 23.0 78 2.9 ENE 17 19 9 10 1013.1 1013.0 0.0
26/06:00pm 27.6 29.6 23.0 76 3.1 ENE 17 20 9 11 1012.8 1012.7 0.0
26/05:30pm 27.8 29.3 23.0 75 3.3 E 20 24 11 13 1012.5 1012.4 0.0
26/05:00pm 28.3 29.9 22.8 72 3.7 ENE 19 22 10 12 1012.2 1012.1 0.0
26/04:30pm 28.3 30.1 23.2 74 3.5 E 19 22 10 12 1012.0 1011.9 0.0
26/04:00pm 28.7 30.1 22.9 71 4.0 E 20 24 11 13 1012.0 1011.9 0.0
26/03:30pm 28.8 30.4 23.2 71 3.8 E 20 24 11 13 1011.9 1011.8 0.0
26/03:00pm 28.8 30.1 22.3 68 4.4 E 19 22 10 12 1011.9 1011.8 0.0
26/02:30pm 29.4 31.7 23.4 70 4.1 E 17 20 9 11 1012.2 1012.1 0.0
26/02:00pm 29.2 31.2 22.9 69 4.3 E 17 19 9 10 1012.6 1012.5 0.0
26/01:30pm 29.7 32.2 22.4 65 5.0 E 13 15 7 8 1012.8 1012.7 0.0
26/01:00pm 29.3 31.8 22.5 67 4.6 E 13 15 7 8 1013.2 1013.1 0.0
26/12:30pm 29.9 33.4 22.9 66 4.8 ESE 9 13 5 7 1013.4 1013.3 0.0
26/12:00pm 29.6 32.3 22.1 64 5.1 ESE 11 13 6 7 1014.0 1013.9 0.0
26/11:30am 29.2 32.2 21.9 64 4.9 SE 9 13 5 7 1014.2 1014.1 0.0
26/11:00am 28.9 30.7 21.9 66 4.7 SE 15 17 8 9 1014.5 1014.4 0.0
26/10:30am 29.2 31.5 22.7 68 4.4 SSE 15 17 8 9 1014.5 1014.4 0.0
26/10:00am 29.1 31.4 22.1 66 4.7 SSE 13 17 7 9 1014.7 1014.6 0.0
26/09:30am 29.1 31.6 23.1 70 4.1 S 15 19 8 10 1014.6 1014.5 0.0
26/09:00am 28.8 31.4 23.9 75 3.4 S 17 20 9 11 1014.6 1014.5 0.0
26/08:30am 27.9 30.0 23.1 75 3.3 S 17 22 9 12 1014.5 1014.4 0.0
26/08:00am 27.1 28.6 22.7 77 3.0 S 19 28 10 15 1014.4 1014.3 0.0
26/07:30am 25.6 27.2 22.1 81 2.3 SSW 17 24 9 13 1014.4 1014.3 0.0
26/07:00am 24.7 27.1 22.2 86 1.7 SW 13 19 7 10 1014.2 1014.1 0.0
26/06:30am 23.8 26.5 22.2 91 1.1 SW 11 15 6 8 1014.2 1014.1 0.0
26/06:00am 23.2 26.1 22.4 95 0.5 SW 11 13 6 7 1013.8 1013.7 0.0
26/05:30am 23.5 26.6 22.1 92 0.9 SW 9 13 5 7 1013.4 1013.3 0.0
26/05:00am 23.4 26.3 21.8 91 1.1 SW 9 11 5 6 1013.3 1013.2 0.0
26/04:30am 23.5 26.2 21.4 88 1.4 SSE 9 11 5 6 1013.2 1013.1 0.0
26/04:00am 23.6 23.4 22.0 91 1.1 SE 26 32 14 17 1013.3 1013.2 0.0
26/03:30am 24.4 24.7 22.3 88 1.4 S 24 30 13 16 1013.0 1012.9 0.0
26/03:00am 24.4 25.6 22.5 89 1.3 S 20 26 11 14 1013.1 1013.0 0.0
26/02:30am 24.3 26.6 22.7 91 1.1 S 15 19 8 10 1013.0 1012.9 0.0
26/02:00am 24.5 26.3 22.6 89 1.3 SE 17 20 9 11 1013.0 1012.9 0.0
26/01:30am 24.4 25.6 22.5 89 1.3 S 20 26 11 14 1013.2 1013.1 0.0
26/01:00am 24.5 25.8 22.6 89 1.3 S 20 26 11 14 1013.3 1013.2 0.0
26/12:30am 24.2 25.5 22.3 89 1.3 S 19 24 10 13 1013.6 1013.5 0.0
26/12:00am 24.5 25.7 22.2 87 1.5 S 19 24 10 13 1013.7 1013.6 0.0
 
Date/Time
EST
Temp
°C
App
Temp
°C
Dew
Point
°C
Rel
Hum
%
Delta-T
°C
Wind Press
QNH
hPa
Press
MSL
hPa
Rain since
9am
mm
Dir  Spd
km/h
Gust
km/h
Spd
kts
Gust
kts
25/11:30pm 25.0 26.1 22.3 85 1.8 S 20 28 11 15 1014.0 1013.9 0.0
25/11:00pm 25.6 27.3 23.1 86 1.7 S 19 24 10 13 1014.1 1014.0 0.0
25/10:30pm 26.0 26.3 22.9 83 2.1 SSE 26 30 14 16 1014.1 1014.0 0.0
25/10:00pm 26.1 26.4 23.0 83 2.1 SSE 26 30 14 16 1014.1 1014.0 0.0
25/09:30pm 26.2 27.1 22.7 81 2.4 SE 22 28 12 15 1014.2 1014.1 0.0
25/09:00pm 26.2 27.5 22.3 79 2.6 SSE 19 22 10 12 1014.2 1014.1 0.0
25/08:30pm 26.4 27.7 22.3 78 2.8 SE 19 24 10 13 1014.2 1014.1 0.0
25/08:00pm 26.1 27.8 22.4 80 2.5 SE 17 20 9 11 1013.8 1013.7 0.0
25/07:30pm 26.2 27.4 22.1 78 2.7 SE 19 22 10 12 1013.5 1013.4 0.0
25/07:00pm 26.3 28.3 23.0 82 2.2 SE 17 20 9 11 1013.2 1013.1 0.0
25/06:30pm 26.4 28.0 22.9 81 2.4 SE 19 24 10 13 1012.9 1012.8 0.0
25/06:00pm 26.5 27.6 23.0 81 2.4 ESE 22 28 12 15 1012.7 1012.6 0.0
25/05:30pm 26.4 28.2 23.3 83 2.1 ESE 19 26 10 14 1012.5 1012.4 0.0
25/05:00pm 26.5 28.1 22.8 80 2.5 ESE 19 24 10 13 1012.2 1012.1 0.0

Other formats

Comma delimited format used in spreadsheet applications
http://www.bom.gov.au/fwo/IDQ60801/IDQ60801.95591.axf

JavaScript Object Notation format (JSON) in row-major order
http://www.bom.gov.au/fwo/IDQ60801/IDQ60801.95591.json

Data quality

Most of these data are generated automatically and are frequently updated. Quality checks on data are not normally performed. It is possible for incorrect values to appear. Refer to information at About Latest Weather Observations and please check the disclaimer before using these data.